sensor_id;sensor_type;location;lat;lon;timestamp;pressure;altitude;pressure_sealevel;temperature
15544;BMP180;7873;52.230;12.856;2023-08-07T00:00:21;99587.34;;;24.20
15544;BMP180;7873;52.230;12.856;2023-08-07T00:02:48;99591.88;;;24.19
15544;BMP180;7873;52.230;12.856;2023-08-07T00:05:15;99590.22;;;24.18
15544;BMP180;7873;52.230;12.856;2023-08-07T00:07:43;99587.53;;;24.18
15544;BMP180;7873;52.230;12.856;2023-08-07T00:10:11;99590.03;;;24.20
15544;BMP180;7873;52.230;12.856;2023-08-07T00:12:38;99592.72;;;24.20
15544;BMP180;7873;52.230;12.856;2023-08-07T00:15:06;99587.53;;;24.18
15544;BMP180;7873;52.230;12.856;2023-08-07T00:17:33;99586.50;;;24.19
15544;BMP180;7873;52.230;12.856;2023-08-07T00:19:59;99591.88;;;24.19
15544;BMP180;7873;52.230;12.856;2023-08-07T00:22:26;99589.19;;;24.19
15544;BMP180;7873;52.230;12.856;2023-08-07T00:24:53;99583.81;;;24.19
15544;BMP180;7873;52.230;12.856;2023-08-07T00:27:21;99583.19;;;24.17
15544;BMP180;7873;52.230;12.856;2023-08-07T00:29:47;99578.66;;;24.18
15544;BMP180;7873;52.230;12.856;2023-08-07T00:32:14;99582.38;;;24.17
15544;BMP180;7873;52.230;12.856;2023-08-07T00:34:41;99582.38;;;24.17
15544;BMP180;7873;52.230;12.856;2023-08-07T00:37:07;99579.69;;;24.17
15544;BMP180;7873;52.230;12.856;2023-08-07T00:39:34;99581.53;;;24.16
15544;BMP180;7873;52.230;12.856;2023-08-07T00:42:01;99574.53;;;24.15
15544;BMP180;7873;52.230;12.856;2023-08-07T00:44:29;99574.53;;;24.15
15544;BMP180;7873;52.230;12.856;2023-08-07T00:46:55;99571.63;;;24.17
15544;BMP180;7873;52.230;12.856;2023-08-07T00:49:22;99570.59;;;24.18
15544;BMP180;7873;52.230;12.856;2023-08-07T00:51:49;99569.97;;;24.16
15544;BMP180;7873;52.230;12.856;2023-08-07T00:54:18;99566.44;;;24.15
15544;BMP180;7873;52.230;12.856;2023-08-07T00:56:45;99571.81;;;24.15
15544;BMP180;7873;52.230;12.856;2023-08-07T00:59:12;99569.97;;;24.16
15544;BMP180;7873;52.230;12.856;2023-08-07T01:01:41;99569.13;;;24.15
15544;BMP180;7873;52.230;12.856;2023-08-07T01:04:07;99568.31;;;24.15
15544;BMP180;7873;52.230;12.856;2023-08-07T01:06:34;99559.22;;;24.16
15544;BMP180;7873;52.230;12.856;2023-08-07T01:09:01;99557.56;;;24.15
15544;BMP180;7873;52.230;12.856;2023-08-07T01:11:34;99556.53;;;24.16
15544;BMP180;7873;52.230;12.856;2023-08-07T01:14:08;99555.50;;;24.17
15544;BMP180;7873;52.230;12.856;2023-08-07T01:16:45;99558.38;;;24.15
15544;BMP180;7873;52.230;12.856;2023-08-07T01:19:19;99567.50;;;24.14
15544;BMP180;7873;52.230;12.856;2023-08-07T01:22:03;99566.69;;;24.14
15544;BMP180;7873;52.230;12.856;2023-08-07T01:24:30;99561.06;;;24.15
15544;BMP180;7873;52.230;12.856;2023-08-07T01:26:57;99566.44;;;24.15
15544;BMP180;7873;52.230;12.856;2023-08-07T01:29:32;99561.06;;;24.15
15544;BMP180;7873;52.230;12.856;2023-08-07T01:32:04;99562.94;;;24.15
15544;BMP180;7873;52.230;12.856;2023-08-07T01:34:33;99554.25;;;24.13
15544;BMP180;7873;52.230;12.856;2023-08-07T01:37:03;99559.63;;;24.13
15544;BMP180;7873;52.230;12.856;2023-08-07T01:39:30;99558.59;;;24.14
15544;BMP180;7873;52.230;12.856;2023-08-07T01:41:57;99558.81;;;24.12
15544;BMP180;7873;52.230;12.856;2023-08-07T01:44:25;99558.81;;;24.12
15544;BMP180;7873;52.230;12.856;2023-08-07T01:46:52;99554.47;;;24.11
15544;BMP180;7873;52.230;12.856;2023-08-07T01:49:19;99558.19;;;24.10
15544;BMP180;7873;52.230;12.856;2023-08-07T01:51:45;99553.63;;;24.11
15544;BMP180;7873;52.230;12.856;2023-08-07T01:54:13;99556.13;;;24.12
15544;BMP180;7873;52.230;12.856;2023-08-07T01:56:40;99559.63;;;24.13
15544;BMP180;7873;52.230;12.856;2023-08-07T01:59:07;99556.94;;;24.13
15544;BMP180;7873;52.230;12.856;2023-08-07T02:01:33;99558.59;;;24.14
15544;BMP180;7873;52.230;12.856;2023-08-07T02:04:00;99554.03;;;24.14
15544;BMP180;7873;52.230;12.856;2023-08-07T02:06:27;99558.59;;;24.14
15544;BMP180;7873;52.230;12.856;2023-08-07T02:08:53;99560.47;;;24.13
15544;BMP180;7873;52.230;12.856;2023-08-07T02:11:21;99557.56;;;24.15
15544;BMP180;7873;52.230;12.856;2023-08-07T02:13:48;99555.06;;;24.13
15544;BMP180;7873;52.230;12.856;2023-08-07T02:16:14;99558.59;;;24.14
15544;BMP180;7873;52.230;12.856;2023-08-07T02:18:41;99548.88;;;24.13
15544;BMP180;7873;52.230;12.856;2023-08-07T02:21:08;99551.78;;;24.11
15544;BMP180;7873;52.230;12.856;2023-08-07T02:23:34;99558.81;;;24.12
15544;BMP180;7873;52.230;12.856;2023-08-07T02:26:01;99559.63;;;24.13
15544;BMP180;7873;52.230;12.856;2023-08-07T02:28:29;99555.06;;;24.13
15544;BMP180;7873;52.230;12.856;2023-08-07T02:30:56;99559.63;;;24.13
15544;BMP180;7873;52.230;12.856;2023-08-07T02:33:22;99550.94;;;24.11
15544;BMP180;7873;52.230;12.856;2023-08-07T02:35:49;99558.59;;;24.14
15544;BMP180;7873;52.230;12.856;2023-08-07T02:38:16;99569.38;;;24.14
15544;BMP180;7873;52.230;12.856;2023-08-07T02:40:43;99567.06;;;24.11
15544;BMP180;7873;52.230;12.856;2023-08-07T02:43:09;99569.75;;;24.11
15544;BMP180;7873;52.230;12.856;2023-08-07T02:45:37;99575.97;;;24.11
15544;BMP180;7873;52.230;12.856;2023-08-07T02:48:04;99567.06;;;24.11
15544;BMP180;7873;52.230;12.856;2023-08-07T02:50:31;99566.25;;;24.10
15544;BMP180;7873;52.230;12.856;2023-08-07T02:52:58;99571.84;;;24.09
15544;BMP180;7873;52.230;12.856;2023-08-07T02:55:24;99572.69;;;24.09
15544;BMP180;7873;52.230;12.856;2023-08-07T02:57:51;99579.72;;;24.10
15544;BMP180;7873;52.230;12.856;2023-08-07T03:00:18;99571.84;;;24.09
15544;BMP180;7873;52.230;12.856;2023-08-07T03:02:46;99584.66;;;24.13
15544;BMP180;7873;52.230;12.856;2023-08-07T03:05:13;99583.19;;;24.17
15544;BMP180;7873;52.230;12.856;2023-08-07T03:07:39;99584.41;;;24.21
15544;BMP180;7873;52.230;12.856;2023-08-07T03:10:07;99584.22;;;24.23
15544;BMP180;7873;52.230;12.856;2023-08-07T03:12:33;99587.31;;;24.26
15544;BMP180;7873;52.230;12.856;2023-08-07T03:15:00;99588.56;;;24.30
15544;BMP180;7873;52.230;12.856;2023-08-07T03:17:27;99595.78;;;24.30
15544;BMP180;7873;52.230;12.856;2023-08-07T03:19:55;99594.75;;;24.31
15544;BMP180;7873;52.230;12.856;2023-08-07T03:22:21;99590.19;;;24.31
15544;BMP180;7873;52.230;12.856;2023-08-07T03:24:48;99593.69;;;24.32
15544;BMP180;7873;52.230;12.856;2023-08-07T03:27:15;99597.22;;;24.32
15544;BMP180;7873;52.230;12.856;2023-08-07T03:29:42;99608.41;;;24.29
15544;BMP180;7873;52.230;12.856;2023-08-07T03:32:09;99604.91;;;24.22
15544;BMP180;7873;52.230;12.856;2023-08-07T03:34:36;99605.31;;;24.26
15544;BMP180;7873;52.230;12.856;2023-08-07T03:37:04;99608.63;;;24.28
15544;BMP180;7873;52.230;12.856;2023-08-07T03:39:30;99605.13;;;24.27
15544;BMP180;7873;52.230;12.856;2023-08-07T03:41:57;99612.56;;;24.25
15544;BMP180;7873;52.230;12.856;2023-08-07T03:44:24;99611.72;;;24.25
15544;BMP180;7873;52.230;12.856;2023-08-07T03:46:50;99605.13;;;24.27
15544;BMP180;7873;52.230;12.856;2023-08-07T03:49:17;99611.31;;;24.28
15544;BMP180;7873;52.230;12.856;2023-08-07T03:51:44;99609.47;;;24.28
15544;BMP180;7873;52.230;12.856;2023-08-07T03:54:12;99627.44;;;24.28
15544;BMP180;7873;52.230;12.856;2023-08-07T03:56:38;99629.09;;;24.29
15544;BMP180;7873;52.230;12.856;2023-08-07T03:59:06;99630.13;;;24.28
15544;BMP180;7873;52.230;12.856;2023-08-07T04:01:32;99629.31;;;24.27
15544;BMP180;7873;52.230;12.856;2023-08-07T04:03:59;99631.19;;;24.27
15544;BMP180;7873;52.230;12.856;2023-08-07T04:06:26;99626.03;;;24.25
15544;BMP180;7873;52.230;12.856;2023-08-07T04:08:54;99635.75;;;24.26
15544;BMP180;7873;52.230;12.856;2023-08-07T04:11:22;99631.19;;;24.20
15544;BMP180;7873;52.230;12.856;2023-08-07T04:13:48;99626.66;;;24.14
15544;BMP180;7873;52.230;12.856;2023-08-07T04:16:16;99627.28;;;24.16
15544;BMP180;7873;52.230;12.856;2023-08-07T04:18:42;99629.97;;;24.16
15544;BMP180;7873;52.230;12.856;2023-08-07T04:21:09;99629.75;;;24.18
15544;BMP180;7873;52.230;12.856;2023-08-07T04:23:36;99632.22;;;24.19
15544;BMP180;7873;52.230;12.856;2023-08-07T04:26:03;99628.06;;;24.23
15544;BMP180;7873;52.230;12.856;2023-08-07T04:28:31;99630.97;;;24.28
15544;BMP180;7873;52.230;12.856;2023-08-07T04:30:57;99630.97;;;24.28
15544;BMP180;7873;52.230;12.856;2023-08-07T04:33:24;99632.81;;;24.28
15544;BMP180;7873;52.230;12.856;2023-08-07T04:35:51;99633.88;;;24.27
15544;BMP180;7873;52.230;12.856;2023-08-07T04:38:17;99628.28;;;24.28
15544;BMP180;7873;52.230;12.856;2023-08-07T04:40:45;99631.59;;;24.30
15544;BMP180;7873;52.230;12.856;2023-08-07T04:43:12;99632.63;;;24.23
15544;BMP180;7873;52.230;12.856;2023-08-07T04:45:40;99645.25;;;24.22
15544;BMP180;7873;52.230;12.856;2023-08-07T04:48:07;99634.72;;;24.21
15544;BMP180;7873;52.230;12.856;2023-08-07T04:50:34;99637.78;;;24.24
15544;BMP180;7873;52.230;12.856;2023-08-07T04:53:01;99634.91;;;24.26
15544;BMP180;7873;52.230;12.856;2023-08-07T04:55:28;99632.22;;;24.26
15544;BMP180;7873;52.230;12.856;2023-08-07T04:57:54;99641.75;;;24.28
15544;BMP180;7873;52.230;12.856;2023-08-07T05:00:21;99640.91;;;24.28
15544;BMP180;7873;52.230;12.856;2023-08-07T05:02:50;99645.47;;;24.27
15544;BMP180;7873;52.230;12.856;2023-08-07T05:05:16;99648.78;;;24.23
15544;BMP180;7873;52.230;12.856;2023-08-07T05:07:45;99645.66;;;24.26
15544;BMP180;7873;52.230;12.856;2023-08-07T05:10:11;99648.56;;;24.24
15544;BMP180;7873;52.230;12.856;2023-08-07T05:12:38;99642.56;;;24.29
15544;BMP180;7873;52.230;12.856;2023-08-07T05:15:06;99647.72;;;24.30
15544;BMP180;7873;52.230;12.856;2023-08-07T05:17:32;99654.75;;;24.31
15544;BMP180;7873;52.230;12.856;2023-08-07T05:20:00;99647.50;;;24.32
15544;BMP180;7873;52.230;12.856;2023-08-07T05:22:28;99648.16;;;24.27
15544;BMP180;7873;52.230;12.856;2023-08-07T05:24:54;99658.50;;;24.24
15544;BMP180;7873;52.230;12.856;2023-08-07T05:27:21;99663.25;;;24.28
15544;BMP180;7873;52.230;12.856;2023-08-07T05:29:48;99652.09;;;24.25
15544;BMP180;7873;52.230;12.856;2023-08-07T05:32:14;99665.09;;;24.28
15544;BMP180;7873;52.230;12.856;2023-08-07T05:34:41;99657.03;;;24.28
15544;BMP180;7873;52.230;12.856;2023-08-07T05:37:09;99659.31;;;24.24
15544;BMP180;7873;52.230;12.856;2023-08-07T05:39:36;99657.66;;;24.23
15544;BMP180;7873;52.230;12.856;2023-08-07T05:42:03;99660.16;;;24.25
15544;BMP180;7873;52.230;12.856;2023-08-07T05:44:30;99660.78;;;24.27
15544;BMP180;7873;52.230;12.856;2023-08-07T05:46:56;99666.16;;;24.27
15544;BMP180;7873;52.230;12.856;2023-08-07T05:49:23;99658.69;;;24.29
15544;BMP180;7873;52.230;12.856;2023-08-07T05:51:50;99647.94;;;24.29
15544;BMP180;7873;52.230;12.856;2023-08-07T05:54:18;99658.69;;;24.29
15544;BMP180;7873;52.230;12.856;2023-08-07T05:56:44;99657.03;;;24.28
15544;BMP180;7873;52.230;12.856;2023-08-07T05:59:11;99667.00;;;24.27
15544;BMP180;7873;52.230;12.856;2023-08-07T06:01:38;99663.47;;;24.27
15544;BMP180;7873;52.230;12.856;2023-08-07T06:04:06;99669.88;;;24.26
15544;BMP180;7873;52.230;12.856;2023-08-07T06:06:33;99681.69;;;24.25
15544;BMP180;7873;52.230;12.856;2023-08-07T06:09:01;99668.41;;;24.23
15544;BMP180;7873;52.230;12.856;2023-08-07T06:11:29;99676.09;;;24.20
15544;BMP180;7873;52.230;12.856;2023-08-07T06:13:56;99679.84;;;24.19
15544;BMP180;7873;52.230;12.856;2023-08-07T06:16:23;99682.53;;;24.19
15544;BMP180;7873;52.230;12.856;2023-08-07T06:18:49;99685.22;;;24.19
15544;BMP180;7873;52.230;12.856;2023-08-07T06:21:16;99690.59;;;24.19
15544;BMP180;7873;52.230;12.856;2023-08-07T06:23:43;99690.78;;;24.17
15544;BMP180;7873;52.230;12.856;2023-08-07T06:26:09;99708.81;;;24.17
15544;BMP180;7873;52.230;12.856;2023-08-07T06:28:37;99696.41;;;24.16
15544;BMP180;7873;52.230;12.856;2023-08-07T06:31:05;99694.50;;;24.16
15544;BMP180;7873;52.230;12.856;2023-08-07T06:33:33;99699.28;;;24.14
15544;BMP180;7873;52.230;12.856;2023-08-07T06:36:00;99705.69;;;24.13
15544;BMP180;7873;52.230;12.856;2023-08-07T06:38:27;99702.16;;;24.13
15544;BMP180;7873;52.230;12.856;2023-08-07T06:40:53;99710.47;;;24.11
15544;BMP180;7873;52.230;12.856;2023-08-07T06:43:20;99721.41;;;24.10
15544;BMP180;7873;52.230;12.856;2023-08-07T06:45:49;99722.25;;;24.10
15544;BMP180;7873;52.230;12.856;2023-08-07T06:48:16;99717.91;;;24.09
15544;BMP180;7873;52.230;12.856;2023-08-07T06:50:42;99717.91;;;24.09
15544;BMP180;7873;52.230;12.856;2023-08-07T06:53:09;99723.28;;;24.09
15544;BMP180;7873;52.230;12.856;2023-08-07T06:55:36;99717.06;;;24.09
15544;BMP180;7873;52.230;12.856;2023-08-07T06:58:03;99727.00;;;24.08
15544;BMP180;7873;52.230;12.856;2023-08-07T07:00:29;99727.00;;;24.08
15544;BMP180;7873;52.230;12.856;2023-08-07T07:02:58;99732.41;;;24.08
15544;BMP180;7873;52.230;12.856;2023-08-07T07:05:24;99739.63;;;24.08
15544;BMP180;7873;52.230;12.856;2023-08-07T07:07:51;99733.63;;;24.06
15544;BMP180;7873;52.230;12.856;2023-08-07T07:10:18;99730.75;;;24.07
15544;BMP180;7873;52.230;12.856;2023-08-07T07:12:44;99737.78;;;24.08
15544;BMP180;7873;52.230;12.856;2023-08-07T07:15:11;99738.59;;;24.09
15544;BMP180;7873;52.230;12.856;2023-08-07T07:17:38;99737.97;;;24.07
15544;BMP180;7873;52.230;12.856;2023-08-07T07:20:07;99731.34;;;24.09
15544;BMP180;7873;52.230;12.856;2023-08-07T07:22:34;99748.53;;;24.08
15544;BMP180;7873;52.230;12.856;2023-08-07T07:25:01;99743.16;;;24.08
15544;BMP180;7873;52.230;12.856;2023-08-07T07:27:28;99750.19;;;24.09
15544;BMP180;7873;52.230;12.856;2023-08-07T07:29:55;99760.94;;;24.09
15544;BMP180;7873;52.230;12.856;2023-08-07T07:32:22;99758.25;;;24.09
15544;BMP180;7873;52.230;12.856;2023-08-07T07:34:48;99763.63;;;24.09
15544;BMP180;7873;52.230;12.856;2023-08-07T07:37:16;99761.97;;;24.08
15544;BMP180;7873;52.230;12.856;2023-08-07T07:39:43;99769.19;;;24.08
15544;BMP180;7873;52.230;12.856;2023-08-07T07:42:10;99760.31;;;24.07
15544;BMP180;7873;52.230;12.856;2023-08-07T07:44:37;99755.13;;;24.06
15544;BMP180;7873;52.230;12.856;2023-08-07T07:47:05;99759.47;;;24.07
15544;BMP180;7873;52.230;12.856;2023-08-07T07:49:32;99758.66;;;24.06
15544;BMP180;7873;52.230;12.856;2023-08-07T07:51:59;99765.91;;;24.06
15544;BMP180;7873;52.230;12.856;2023-08-07T07:54:28;99757.00;;;24.05
15544;BMP180;7873;52.230;12.856;2023-08-07T07:56:55;99778.31;;;24.07
15544;BMP180;7873;52.230;12.856;2023-08-07T07:59:21;99760.31;;;24.07
15544;BMP180;7873;52.230;12.856;2023-08-07T08:01:48;99764.03;;;24.06
15544;BMP180;7873;52.230;12.856;2023-08-07T08:04:15;99763.81;;;24.08
15544;BMP180;7873;52.230;12.856;2023-08-07T08:06:41;99773.53;;;24.09
15544;BMP180;7873;52.230;12.856;2023-08-07T08:09:08;99771.69;;;24.09
15544;BMP180;7873;52.230;12.856;2023-08-07T08:11:36;99778.72;;;24.10
15544;BMP180;7873;52.230;12.856;2023-08-07T08:14:03;99773.34;;;24.10
15544;BMP180;7873;52.230;12.856;2023-08-07T08:16:30;99775.00;;;24.11
15544;BMP180;7873;52.230;12.856;2023-08-07T08:18:56;99776.03;;;24.10
15544;BMP180;7873;52.230;12.856;2023-08-07T08:21:23;99781.41;;;24.10
15544;BMP180;7873;52.230;12.856;2023-08-07T08:23:50;99776.84;;;24.11
15544;BMP180;7873;52.230;12.856;2023-08-07T08:26:16;99784.91;;;24.11
15544;BMP180;7873;52.230;12.856;2023-08-07T08:28:44;99784.09;;;24.10
15544;BMP180;7873;52.230;12.856;2023-08-07T08:31:11;99775.00;;;24.11
15544;BMP180;7873;52.230;12.856;2023-08-07T08:33:38;99794.88;;;24.10
15544;BMP180;7873;52.230;12.856;2023-08-07T08:36:05;99790.53;;;24.09
15544;BMP180;7873;52.230;12.856;2023-08-07T08:38:32;99797.75;;;24.09
15544;BMP180;7873;52.230;12.856;2023-08-07T08:41:02;99788.88;;;24.08
15544;BMP180;7873;52.230;12.856;2023-08-07T08:43:34;99790.94;;;24.06
15544;BMP180;7873;52.230;12.856;2023-08-07T08:46:04;99790.94;;;24.06
15544;BMP180;7873;52.230;12.856;2023-08-07T08:48:34;99798.16;;;24.06
15544;BMP180;7873;52.230;12.856;2023-08-07T08:51:02;99799.81;;;24.07
15544;BMP180;7873;52.230;12.856;2023-08-07T08:53:30;99799.63;;;24.08
15544;BMP180;7873;52.230;12.856;2023-08-07T08:55:58;99799.81;;;24.07
15544;BMP180;7873;52.230;12.856;2023-08-07T08:58:26;99807.28;;;24.05
15544;BMP180;7873;52.230;12.856;2023-08-07T09:00:53;99814.09;;;24.07
15544;BMP180;7873;52.230;12.856;2023-08-07T09:03:21;99803.34;;;24.07
15544;BMP180;7873;52.230;12.856;2023-08-07T09:05:49;99806.03;;;24.07
15544;BMP180;7873;52.230;12.856;2023-08-07T09:08:16;99790.31;;;24.04
15544;BMP180;7873;52.230;12.856;2023-08-07T09:10:43;99805.41;;;24.05
15544;BMP180;7873;52.230;12.856;2023-08-07T09:13:14;99823.41;;;24.05
15544;BMP180;7873;52.230;12.856;2023-08-07T09:15:43;99811.84;;;24.04
15544;BMP180;7873;52.230;12.856;2023-08-07T09:18:13;99809.34;;;24.03
15544;BMP180;7873;52.230;12.856;2023-08-07T09:20:41;99817.22;;;24.04
15544;BMP180;7873;52.230;12.856;2023-08-07T09:23:09;99809.16;;;24.04
15544;BMP180;7873;52.230;12.856;2023-08-07T09:25:35;99815.56;;;24.03
15544;BMP180;7873;52.230;12.856;2023-08-07T09:28:03;99818.25;;;24.03
15544;BMP180;7873;52.230;12.856;2023-08-07T09:30:31;99812.88;;;24.03
15544;BMP180;7873;52.230;12.856;2023-08-07T09:32:58;99820.09;;;24.03
15544;BMP180;7873;52.230;12.856;2023-08-07T09:35:25;99819.28;;;24.02
15544;BMP180;7873;52.230;12.856;2023-08-07T09:37:53;99812.88;;;24.03
15544;BMP180;7873;52.230;12.856;2023-08-07T09:40:20;99823.81;;;24.02
15544;BMP180;7873;52.230;12.856;2023-08-07T09:42:50;99810.19;;;24.03
15544;BMP180;7873;52.230;12.856;2023-08-07T09:45:21;99817.22;;;24.04
15544;BMP180;7873;52.230;12.856;2023-08-07T09:47:57;99814.72;;;24.03
15544;BMP180;7873;52.230;12.856;2023-08-07T09:50:24;99827.13;;;24.04
15544;BMP180;7873;52.230;12.856;2023-08-07T09:52:54;99831.69;;;24.03
15544;BMP180;7873;52.230;12.856;2023-08-07T09:55:21;99826.31;;;24.03
15544;BMP180;7873;52.230;12.856;2023-08-07T09:57:48;99830.84;;;24.03
15544;BMP180;7873;52.230;12.856;2023-08-07T10:00:15;99820.28;;;24.01
15544;BMP180;7873;52.230;12.856;2023-08-07T10:02:45;99817.59;;;24.01
15544;BMP180;7873;52.230;12.856;2023-08-07T10:05:13;99822.97;;;24.01
15544;BMP180;7873;52.230;12.856;2023-08-07T10:07:40;99832.91;;;24.01
15544;BMP180;7873;52.230;12.856;2023-08-07T10:10:09;99833.09;;;23.99
15544;BMP180;7873;52.230;12.856;2023-08-07T10:12:36;99842.22;;;23.98
15544;BMP180;7873;52.230;12.856;2023-08-07T10:15:04;99825.03;;;23.99
15544;BMP180;7873;52.230;12.856;2023-08-07T10:17:31;99834.16;;;23.98
15544;BMP180;7873;52.230;12.856;2023-08-07T10:19:58;99837.69;;;23.99
15544;BMP180;7873;52.230;12.856;2023-08-07T10:22:25;99847.41;;;24.00
15544;BMP180;7873;52.230;12.856;2023-08-07T10:24:57;99837.69;;;23.99
15544;BMP180;7873;52.230;12.856;2023-08-07T10:27:27;99837.69;;;23.99
15544;BMP180;7873;52.230;12.856;2023-08-07T10:29:56;99843.25;;;23.97
15544;BMP180;7873;52.230;12.856;2023-08-07T10:32:25;99849.25;;;23.99
15544;BMP180;7873;52.230;12.856;2023-08-07T10:34:52;99824.41;;;23.97
15544;BMP180;7873;52.230;12.856;2023-08-07T10:37:39;99841.41;;;23.98
15544;BMP180;7873;52.230;12.856;2023-08-07T10:40:07;99831.47;;;23.98
15544;BMP180;7873;52.230;12.856;2023-08-07T10:42:55;99845.13;;;23.97
15544;BMP180;7873;52.230;12.856;2023-08-07T10:45:23;99851.53;;;23.96
15544;BMP180;7873;52.230;12.856;2023-08-07T10:48:05;99841.59;;;23.96
15544;BMP180;7873;52.230;12.856;2023-08-07T10:50:33;99848.84;;;23.96
15544;BMP180;7873;52.230;12.856;2023-08-07T10:53:01;99833.53;;;23.96
15544;BMP180;7873;52.230;12.856;2023-08-07T10:55:31;99837.88;;;23.97
15544;BMP180;7873;52.230;12.856;2023-08-07T10:58:00;99838.91;;;23.96
15544;BMP180;7873;52.230;12.856;2023-08-07T11:00:27;99828.16;;;23.96
15544;BMP180;7873;52.230;12.856;2023-08-07T11:02:57;99820.06;;;23.96
15544;BMP180;7873;52.230;12.856;2023-08-07T11:05:24;99826.31;;;23.97
15544;BMP180;7873;52.230;12.856;2023-08-07T11:07:53;99823.59;;;23.97
15544;BMP180;7873;52.230;12.856;2023-08-07T11:10:20;99817.63;;;23.95
15544;BMP180;7873;52.230;12.856;2023-08-07T11:12:48;99827.34;;;23.96
15544;BMP180;7873;52.230;12.856;2023-08-07T11:15:16;99819.25;;;23.96
15544;BMP180;7873;52.230;12.856;2023-08-07T11:17:43;99810.97;;;23.97
15544;BMP180;7873;52.230;12.856;2023-08-07T11:20:11;99815.53;;;23.97
15544;BMP180;7873;52.230;12.856;2023-08-07T11:22:38;99815.53;;;23.97
15544;BMP180;7873;52.230;12.856;2023-08-07T11:25:07;99812.00;;;23.96
15544;BMP180;7873;52.230;12.856;2023-08-07T11:27:36;99835.19;;;23.97
15544;BMP180;7873;52.230;12.856;2023-08-07T11:30:04;99832.72;;;23.96
15544;BMP180;7873;52.230;12.856;2023-08-07T11:32:33;99821.94;;;23.96
15544;BMP180;7873;52.230;12.856;2023-08-07T11:35:00;99823.81;;;23.95
15544;BMP180;7873;52.230;12.856;2023-08-07T11:37:28;99816.78;;;23.94
15544;BMP180;7873;52.230;12.856;2023-08-07T11:40:00;99820.50;;;23.93
15544;BMP180;7873;52.230;12.856;2023-08-07T11:42:27;99821.13;;;23.95
15544;BMP180;7873;52.230;12.856;2023-08-07T11:44:54;99845.53;;;23.94
15544;BMP180;7873;52.230;12.856;2023-08-07T11:47:20;99839.13;;;23.95
15544;BMP180;7873;52.230;12.856;2023-08-07T11:49:49;99832.72;;;23.96
15544;BMP180;7873;52.230;12.856;2023-08-07T11:52:18;99824.66;;;23.96
15544;BMP180;7873;52.230;12.856;2023-08-07T11:54:46;99820.06;;;23.96
15544;BMP180;7873;52.230;12.856;2023-08-07T11:57:17;99822.78;;;23.96
15544;BMP180;7873;52.230;12.856;2023-08-07T11:59:48;99825.47;;;23.96
15544;BMP180;7873;52.230;12.856;2023-08-07T12:02:15;99828.16;;;23.96
15544;BMP180;7873;52.230;12.856;2023-08-07T12:04:43;99823.81;;;23.95
15544;BMP180;7873;52.230;12.856;2023-08-07T12:07:11;99830.22;;;23.94
15544;BMP180;7873;52.230;12.856;2023-08-07T12:09:44;99831.25;;;23.93
15544;BMP180;7873;52.230;12.856;2023-08-07T12:12:11;99846.56;;;23.93
15544;BMP180;7873;52.230;12.856;2023-08-07T12:14:38;99846.56;;;23.93
15544;BMP180;7873;52.230;12.856;2023-08-07T12:17:05;99857.50;;;23.91
15544;BMP180;7873;52.230;12.856;2023-08-07T12:19:36;99920.19;;;23.92
15544;BMP180;7873;52.230;12.856;2023-08-07T12:22:06;99942.75;;;23.91
15544;BMP180;7873;52.230;12.856;2023-08-07T12:24:36;99909.63;;;23.90
15544;BMP180;7873;52.230;12.856;2023-08-07T12:27:04;99899.06;;;23.89
15544;BMP180;7873;52.230;12.856;2023-08-07T12:29:32;99883.78;;;23.89
15544;BMP180;7873;52.230;12.856;2023-08-07T12:31:58;99876.53;;;23.90
15544;BMP180;7873;52.230;12.856;2023-08-07T12:34:26;99874.69;;;23.90
15544;BMP180;7873;52.230;12.856;2023-08-07T12:36:53;99879.22;;;23.90
15544;BMP180;7873;52.230;12.856;2023-08-07T12:39:20;99880.91;;;23.91
15544;BMP180;7873;52.230;12.856;2023-08-07T12:41:48;99874.69;;;23.90
15544;BMP180;7873;52.230;12.856;2023-08-07T12:44:15;99880.91;;;23.91
15544;BMP180;7873;52.230;12.856;2023-08-07T12:46:42;99873.66;;;23.91
15544;BMP180;7873;52.230;12.856;2023-08-07T12:49:08;99869.13;;;23.92
15544;BMP180;7873;52.230;12.856;2023-08-07T12:51:35;99861.03;;;23.92
15544;BMP180;7873;52.230;12.856;2023-08-07T12:54:02;99872.84;;;23.91
15544;BMP180;7873;52.230;12.856;2023-08-07T12:56:29;99875.53;;;23.91
15544;BMP180;7873;52.230;12.856;2023-08-07T12:58:57;99879.03;;;23.91
15544;BMP180;7873;52.230;12.856;2023-08-07T13:01:24;99881.72;;;23.91
15544;BMP180;7873;52.230;12.856;2023-08-07T13:03:51;99876.34;;;23.91
15544;BMP180;7873;52.230;12.856;2023-08-07T13:06:17;99872.00;;;23.90
15544;BMP180;7873;52.230;12.856;2023-08-07T13:08:44;99882.75;;;23.90
15544;BMP180;7873;52.230;12.856;2023-08-07T13:11:12;99886.28;;;23.91
15544;BMP180;7873;52.230;12.856;2023-08-07T13:13:38;99883.59;;;23.91
15544;BMP180;7873;52.230;12.856;2023-08-07T13:16:07;99882.75;;;23.90
15544;BMP180;7873;52.230;12.856;2023-08-07T13:18:33;99881.09;;;23.89
15544;BMP180;7873;52.230;12.856;2023-08-07T13:21:00;99894.53;;;23.89
15544;BMP180;7873;52.230;12.856;2023-08-07T13:23:27;99888.13;;;23.90
15544;BMP180;7873;52.230;12.856;2023-08-07T13:25:53;99884.59;;;23.90
15544;BMP180;7873;52.230;12.856;2023-08-07T13:28:21;99901.56;;;23.90
15544;BMP180;7873;52.230;12.856;2023-08-07T13:30:48;99892.66;;;23.90
15544;BMP180;7873;52.230;12.856;2023-08-07T13:33:16;99899.91;;;23.89
15544;BMP180;7873;52.230;12.856;2023-08-07T13:35:45;99907.78;;;23.91
15544;BMP180;7873;52.230;12.856;2023-08-07T13:38:12;99896.19;;;23.90
15544;BMP180;7873;52.230;12.856;2023-08-07T13:40:40;99913.34;;;23.89
15544;BMP180;7873;52.230;12.856;2023-08-07T13:43:07;99913.16;;;23.91
15544;BMP180;7873;52.230;12.856;2023-08-07T13:45:34;99906.09;;;23.90
15544;BMP180;7873;52.230;12.856;2023-08-07T13:48:01;99904.25;;;23.90
15544;BMP180;7873;52.230;12.856;2023-08-07T13:50:30;99902.41;;;23.91
15544;BMP180;7873;52.230;12.856;2023-08-07T13:52:57;99902.41;;;23.91
15544;BMP180;7873;52.230;12.856;2023-08-07T13:55:23;99912.94;;;23.92
15544;BMP180;7873;52.230;12.856;2023-08-07T13:57:50;99908.59;;;23.91
15544;BMP180;7873;52.230;12.856;2023-08-07T14:00:17;99919.34;;;23.91
15544;BMP180;7873;52.230;12.856;2023-08-07T14:02:43;99920.19;;;23.92
15544;BMP180;7873;52.230;12.856;2023-08-07T14:05:10;99923.06;;;23.90
15544;BMP180;7873;52.230;12.856;2023-08-07T14:07:38;99943.75;;;23.90
15544;BMP180;7873;52.230;12.856;2023-08-07T14:10:06;99943.75;;;23.90